sensor_id;sensor_type;location;lat;lon;timestamp;P1;durP1;ratioP1;P2;durP2;ratioP2
22152;SDS011;11242;50.536;12.688;2023-04-03T00:01:03;10.10;;;5.47;;
22152;SDS011;11242;50.536;12.688;2023-04-03T00:03:29;9.00;;;4.80;;
22152;SDS011;11242;50.536;12.688;2023-04-03T00:05:54;9.00;;;5.13;;
22152;SDS011;11242;50.536;12.688;2023-04-03T00:08:20;7.95;;;4.88;;
22152;SDS011;11242;50.536;12.688;2023-04-03T00:10:46;7.85;;;5.20;;
22152;SDS011;11242;50.536;12.688;2023-04-03T00:13:12;9.98;;;4.80;;
22152;SDS011;11242;50.536;12.688;2023-04-03T00:15:37;8.52;;;4.90;;
22152;SDS011;11242;50.536;12.688;2023-04-03T00:18:04;9.00;;;5.80;;
22152;SDS011;11242;50.536;12.688;2023-04-03T00:20:29;9.38;;;5.85;;
22152;SDS011;11242;50.536;12.688;2023-04-03T00:22:55;8.75;;;5.38;;
22152;SDS011;11242;50.536;12.688;2023-04-03T00:25:21;11.68;;;6.05;;
22152;SDS011;11242;50.536;12.688;2023-04-03T00:27:47;10.95;;;5.88;;
22152;SDS011;11242;50.536;12.688;2023-04-03T00:30:13;9.68;;;5.50;;
22152;SDS011;11242;50.536;12.688;2023-04-03T00:32:40;8.60;;;5.25;;
22152;SDS011;11242;50.536;12.688;2023-04-03T00:35:06;11.85;;;5.22;;
22152;SDS011;11242;50.536;12.688;2023-04-03T00:37:31;8.10;;;4.88;;
22152;SDS011;11242;50.536;12.688;2023-04-03T00:39:57;10.10;;;5.57;;
22152;SDS011;11242;50.536;12.688;2023-04-03T00:42:23;10.38;;;5.05;;
22152;SDS011;11242;50.536;12.688;2023-04-03T00:47:17;11.07;;;5.50;;
22152;SDS011;11242;50.536;12.688;2023-04-03T00:49:43;6.90;;;4.95;;
22152;SDS011;11242;50.536;12.688;2023-04-03T00:52:11;8.90;;;4.90;;
22152;SDS011;11242;50.536;12.688;2023-04-03T00:54:40;16.40;;;5.75;;
22152;SDS011;11242;50.536;12.688;2023-04-03T00:57:07;9.85;;;4.88;;
22152;SDS011;11242;50.536;12.688;2023-04-03T00:59:35;10.63;;;5.05;;
22152;SDS011;11242;50.536;12.688;2023-04-03T01:02:09;8.45;;;4.88;;
22152;SDS011;11242;50.536;12.688;2023-04-03T01:04:38;10.43;;;5.13;;
22152;SDS011;11242;50.536;12.688;2023-04-03T01:07:16;9.20;;;5.05;;
22152;SDS011;11242;50.536;12.688;2023-04-03T01:09:42;8.88;;;4.78;;
22152;SDS011;11242;50.536;12.688;2023-04-03T01:12:17;8.07;;;4.45;;
22152;SDS011;11242;50.536;12.688;2023-04-03T01:14:46;10.45;;;5.20;;
22152;SDS011;11242;50.536;12.688;2023-04-03T01:19:55;11.82;;;4.80;;
22152;SDS011;11242;50.536;12.688;2023-04-03T01:25:53;7.32;;;4.93;;
22152;SDS011;11242;50.536;12.688;2023-04-03T01:28:29;8.00;;;4.63;;
22152;SDS011;11242;50.536;12.688;2023-04-03T01:34:08;8.13;;;5.70;;
22152;SDS011;11242;50.536;12.688;2023-04-03T01:36:34;8.52;;;5.28;;
22152;SDS011;11242;50.536;12.688;2023-04-03T01:39:00;11.65;;;5.90;;
22152;SDS011;11242;50.536;12.688;2023-04-03T01:41:26;12.80;;;5.97;;
22152;SDS011;11242;50.536;12.688;2023-04-03T01:43:58;9.98;;;5.65;;
22152;SDS011;11242;50.536;12.688;2023-04-03T01:46:24;9.60;;;4.65;;
22152;SDS011;11242;50.536;12.688;2023-04-03T01:48:50;8.60;;;4.30;;
22152;SDS011;11242;50.536;12.688;2023-04-03T01:51:15;10.07;;;4.65;;
22152;SDS011;11242;50.536;12.688;2023-04-03T01:53:41;9.50;;;4.30;;
22152;SDS011;11242;50.536;12.688;2023-04-03T01:56:07;9.07;;;4.32;;
22152;SDS011;11242;50.536;12.688;2023-04-03T01:58:32;8.70;;;4.63;;
22152;SDS011;11242;50.536;12.688;2023-04-03T02:00:58;12.38;;;5.43;;
22152;SDS011;11242;50.536;12.688;2023-04-03T02:03:25;9.43;;;4.53;;
22152;SDS011;11242;50.536;12.688;2023-04-03T02:05:51;8.82;;;4.93;;
22152;SDS011;11242;50.536;12.688;2023-04-03T02:08:17;10.35;;;4.70;;
22152;SDS011;11242;50.536;12.688;2023-04-03T02:10:43;7.45;;;4.68;;
22152;SDS011;11242;50.536;12.688;2023-04-03T02:13:10;9.75;;;5.25;;
22152;SDS011;11242;50.536;12.688;2023-04-03T02:15:39;13.65;;;5.25;;
22152;SDS011;11242;50.536;12.688;2023-04-03T02:18:05;9.60;;;5.15;;
22152;SDS011;11242;50.536;12.688;2023-04-03T02:20:31;8.27;;;4.80;;
22152;SDS011;11242;50.536;12.688;2023-04-03T02:22:57;11.25;;;5.13;;
22152;SDS011;11242;50.536;12.688;2023-04-03T02:25:24;12.57;;;5.43;;
22152;SDS011;11242;50.536;12.688;2023-04-03T02:27:49;8.98;;;5.00;;
22152;SDS011;11242;50.536;12.688;2023-04-03T02:30:15;8.25;;;5.57;;
22152;SDS011;11242;50.536;12.688;2023-04-03T02:32:41;9.55;;;5.80;;
22152;SDS011;11242;50.536;12.688;2023-04-03T02:35:08;9.63;;;5.25;;
22152;SDS011;11242;50.536;12.688;2023-04-03T02:37:35;9.35;;;5.68;;
22152;SDS011;11242;50.536;12.688;2023-04-03T02:40:01;8.98;;;5.07;;
22152;SDS011;11242;50.536;12.688;2023-04-03T02:42:27;10.90;;;5.28;;
22152;SDS011;11242;50.536;12.688;2023-04-03T02:44:53;11.70;;;5.35;;
22152;SDS011;11242;50.536;12.688;2023-04-03T02:47:18;11.95;;;4.97;;
22152;SDS011;11242;50.536;12.688;2023-04-03T02:49:44;8.43;;;4.75;;
22152;SDS011;11242;50.536;12.688;2023-04-03T02:52:11;8.43;;;4.93;;
22152;SDS011;11242;50.536;12.688;2023-04-03T02:54:37;9.57;;;4.55;;
22152;SDS011;11242;50.536;12.688;2023-04-03T02:57:06;11.13;;;4.93;;
22152;SDS011;11242;50.536;12.688;2023-04-03T02:59:34;9.35;;;4.57;;
22152;SDS011;11242;50.536;12.688;2023-04-03T03:02:00;10.57;;;5.25;;
22152;SDS011;11242;50.536;12.688;2023-04-03T03:04:26;11.35;;;4.85;;
22152;SDS011;11242;50.536;12.688;2023-04-03T03:06:51;8.23;;;4.70;;
22152;SDS011;11242;50.536;12.688;2023-04-03T03:09:17;9.15;;;4.63;;
22152;SDS011;11242;50.536;12.688;2023-04-03T03:11:43;10.35;;;4.65;;
22152;SDS011;11242;50.536;12.688;2023-04-03T03:14:09;6.65;;;4.18;;
22152;SDS011;11242;50.536;12.688;2023-04-03T03:16:35;7.97;;;4.40;;
22152;SDS011;11242;50.536;12.688;2023-04-03T03:19:00;8.90;;;4.30;;
22152;SDS011;11242;50.536;12.688;2023-04-03T03:21:26;8.45;;;3.95;;
22152;SDS011;11242;50.536;12.688;2023-04-03T03:23:52;14.65;;;4.38;;
22152;SDS011;11242;50.536;12.688;2023-04-03T03:26:17;9.98;;;3.72;;
22152;SDS011;11242;50.536;12.688;2023-04-03T03:28:43;7.30;;;3.50;;
22152;SDS011;11242;50.536;12.688;2023-04-03T03:31:10;9.48;;;4.35;;
22152;SDS011;11242;50.536;12.688;2023-04-03T03:33:37;9.25;;;4.70;;
22152;SDS011;11242;50.536;12.688;2023-04-03T03:36:03;10.27;;;3.95;;
22152;SDS011;11242;50.536;12.688;2023-04-03T03:38:29;11.30;;;3.95;;
22152;SDS011;11242;50.536;12.688;2023-04-03T03:40:55;7.90;;;3.80;;
22152;SDS011;11242;50.536;12.688;2023-04-03T03:43:22;8.27;;;4.00;;
22152;SDS011;11242;50.536;12.688;2023-04-03T03:45:49;7.82;;;4.22;;
22152;SDS011;11242;50.536;12.688;2023-04-03T03:48:19;7.05;;;4.55;;
22152;SDS011;11242;50.536;12.688;2023-04-03T03:50:45;9.13;;;4.78;;
22152;SDS011;11242;50.536;12.688;2023-04-03T03:53:12;11.35;;;5.50;;
22152;SDS011;11242;50.536;12.688;2023-04-03T03:55:37;9.80;;;5.50;;
22152;SDS011;11242;50.536;12.688;2023-04-03T03:58:03;11.85;;;6.30;;
22152;SDS011;11242;50.536;12.688;2023-04-03T04:00:30;12.57;;;5.63;;
22152;SDS011;11242;50.536;12.688;2023-04-03T04:02:56;9.68;;;5.50;;
22152;SDS011;11242;50.536;12.688;2023-04-03T04:05:22;9.57;;;5.65;;
22152;SDS011;11242;50.536;12.688;2023-04-03T04:07:48;9.77;;;5.03;;
22152;SDS011;11242;50.536;12.688;2023-04-03T04:10:14;13.80;;;5.32;;
22152;SDS011;11242;50.536;12.688;2023-04-03T04:12:42;9.77;;;5.55;;
22152;SDS011;11242;50.536;12.688;2023-04-03T04:15:08;11.52;;;6.22;;
22152;SDS011;11242;50.536;12.688;2023-04-03T04:17:35;8.73;;;5.57;;
22152;SDS011;11242;50.536;12.688;2023-04-03T04:20:02;10.15;;;5.50;;
22152;SDS011;11242;50.536;12.688;2023-04-03T04:22:30;13.20;;;6.40;;
22152;SDS011;11242;50.536;12.688;2023-04-03T04:24:56;51.25;;;27.13;;
22152;SDS011;11242;50.536;12.688;2023-04-03T04:27:21;29.05;;;16.00;;
22152;SDS011;11242;50.536;12.688;2023-04-03T04:29:47;16.58;;;8.20;;
22152;SDS011;11242;50.536;12.688;2023-04-03T04:32:13;9.98;;;5.80;;
22152;SDS011;11242;50.536;12.688;2023-04-03T04:34:39;13.57;;;6.55;;
22152;SDS011;11242;50.536;12.688;2023-04-03T04:37:05;30.15;;;16.42;;
22152;SDS011;11242;50.536;12.688;2023-04-03T04:39:31;14.65;;;6.35;;
22152;SDS011;11242;50.536;12.688;2023-04-03T04:41:57;30.08;;;17.02;;
22152;SDS011;11242;50.536;12.688;2023-04-03T04:44:25;16.45;;;7.10;;
22152;SDS011;11242;50.536;12.688;2023-04-03T04:46:51;19.63;;;12.57;;
22152;SDS011;11242;50.536;12.688;2023-04-03T04:49:17;17.48;;;9.30;;
22152;SDS011;11242;50.536;12.688;2023-04-03T04:51:42;23.20;;;13.00;;
22152;SDS011;11242;50.536;12.688;2023-04-03T04:54:09;22.58;;;12.95;;
22152;SDS011;11242;50.536;12.688;2023-04-03T04:56:35;24.27;;;13.77;;
22152;SDS011;11242;50.536;12.688;2023-04-03T04:59:01;29.77;;;15.80;;
22152;SDS011;11242;50.536;12.688;2023-04-03T05:01:27;27.58;;;14.43;;
22152;SDS011;11242;50.536;12.688;2023-04-03T05:03:59;26.92;;;16.30;;
22152;SDS011;11242;50.536;12.688;2023-04-03T05:06:25;30.05;;;14.80;;
22152;SDS011;11242;50.536;12.688;2023-04-03T05:08:51;16.95;;;9.82;;
22152;SDS011;11242;50.536;12.688;2023-04-03T05:11:18;23.90;;;13.93;;
22152;SDS011;11242;50.536;12.688;2023-04-03T05:13:47;23.13;;;14.60;;
22152;SDS011;11242;50.536;12.688;2023-04-03T05:16:13;27.73;;;12.10;;
22152;SDS011;11242;50.536;12.688;2023-04-03T05:18:38;15.73;;;9.27;;
22152;SDS011;11242;50.536;12.688;2023-04-03T05:21:08;23.08;;;12.80;;
22152;SDS011;11242;50.536;12.688;2023-04-03T05:23:34;26.33;;;15.27;;
22152;SDS011;11242;50.536;12.688;2023-04-03T05:26:01;17.20;;;10.77;;
22152;SDS011;11242;50.536;12.688;2023-04-03T05:28:28;34.95;;;17.45;;
22152;SDS011;11242;50.536;12.688;2023-04-03T05:30:56;22.42;;;13.07;;
22152;SDS011;11242;50.536;12.688;2023-04-03T05:33:25;21.45;;;11.07;;
22152;SDS011;11242;50.536;12.688;2023-04-03T05:35:53;21.27;;;14.00;;
22152;SDS011;11242;50.536;12.688;2023-04-03T05:38:23;17.80;;;9.55;;
22152;SDS011;11242;50.536;12.688;2023-04-03T05:40:50;12.55;;;8.18;;
22152;SDS011;11242;50.536;12.688;2023-04-03T05:43:16;14.00;;;8.05;;
22152;SDS011;11242;50.536;12.688;2023-04-03T05:45:43;12.40;;;7.13;;
22152;SDS011;11242;50.536;12.688;2023-04-03T05:48:08;14.70;;;7.45;;
22152;SDS011;11242;50.536;12.688;2023-04-03T05:50:34;10.68;;;6.72;;
22152;SDS011;11242;50.536;12.688;2023-04-03T05:53:01;9.30;;;6.38;;
22152;SDS011;11242;50.536;12.688;2023-04-03T05:55:30;9.20;;;5.65;;
22152;SDS011;11242;50.536;12.688;2023-04-03T05:57:56;7.57;;;5.47;;
22152;SDS011;11242;50.536;12.688;2023-04-03T06:00:21;13.85;;;6.07;;
22152;SDS011;11242;50.536;12.688;2023-04-03T06:02:56;11.95;;;5.63;;
22152;SDS011;11242;50.536;12.688;2023-04-03T06:05:23;9.88;;;6.68;;
22152;SDS011;11242;50.536;12.688;2023-04-03T06:07:49;12.57;;;7.35;;
22152;SDS011;11242;50.536;12.688;2023-04-03T06:10:15;8.50;;;5.15;;
22152;SDS011;11242;50.536;12.688;2023-04-03T06:12:41;9.40;;;5.15;;
22152;SDS011;11242;50.536;12.688;2023-04-03T06:15:07;16.40;;;7.10;;
22152;SDS011;11242;50.536;12.688;2023-04-03T06:17:35;18.15;;;8.95;;
22152;SDS011;11242;50.536;12.688;2023-04-03T06:20:01;8.65;;;5.18;;
22152;SDS011;11242;50.536;12.688;2023-04-03T06:22:27;10.98;;;5.07;;
22152;SDS011;11242;50.536;12.688;2023-04-03T06:24:55;9.00;;;5.18;;
22152;SDS011;11242;50.536;12.688;2023-04-03T06:27:21;8.82;;;5.60;;
22152;SDS011;11242;50.536;12.688;2023-04-03T06:29:46;8.18;;;4.63;;
22152;SDS011;11242;50.536;12.688;2023-04-03T06:32:13;7.32;;;4.72;;
22152;SDS011;11242;50.536;12.688;2023-04-03T06:34:40;7.20;;;4.13;;
22152;SDS011;11242;50.536;12.688;2023-04-03T06:37:10;10.35;;;4.60;;
22152;SDS011;11242;50.536;12.688;2023-04-03T06:39:39;9.43;;;5.03;;
22152;SDS011;11242;50.536;12.688;2023-04-03T06:42:05;5.55;;;3.80;;
22152;SDS011;11242;50.536;12.688;2023-04-03T06:44:37;6.22;;;4.47;;
22152;SDS011;11242;50.536;12.688;2023-04-03T06:47:03;6.80;;;4.72;;
22152;SDS011;11242;50.536;12.688;2023-04-03T06:49:28;6.05;;;4.00;;
22152;SDS011;11242;50.536;12.688;2023-04-03T06:51:55;5.93;;;4.13;;
22152;SDS011;11242;50.536;12.688;2023-04-03T06:54:21;9.50;;;4.78;;
22152;SDS011;11242;50.536;12.688;2023-04-03T06:56:47;8.38;;;4.40;;
22152;SDS011;11242;50.536;12.688;2023-04-03T06:59:13;9.50;;;5.28;;
22152;SDS011;11242;50.536;12.688;2023-04-03T07:01:40;5.75;;;4.13;;
22152;SDS011;11242;50.536;12.688;2023-04-03T07:04:05;5.75;;;4.55;;
22152;SDS011;11242;50.536;12.688;2023-04-03T07:06:32;7.43;;;5.30;;
22152;SDS011;11242;50.536;12.688;2023-04-03T07:08:58;6.03;;;4.47;;
22152;SDS011;11242;50.536;12.688;2023-04-03T07:11:24;8.75;;;5.03;;
22152;SDS011;11242;50.536;12.688;2023-04-03T07:13:51;8.05;;;5.40;;
22152;SDS011;11242;50.536;12.688;2023-04-03T07:16:17;9.68;;;5.50;;
22152;SDS011;11242;50.536;12.688;2023-04-03T07:18:43;6.00;;;4.38;;
22152;SDS011;11242;50.536;12.688;2023-04-03T07:21:09;8.65;;;4.90;;
22152;SDS011;11242;50.536;12.688;2023-04-03T07:23:35;10.32;;;4.72;;
22152;SDS011;11242;50.536;12.688;2023-04-03T07:26:01;7.95;;;4.28;;
22152;SDS011;11242;50.536;12.688;2023-04-03T07:28:27;7.43;;;4.10;;
22152;SDS011;11242;50.536;12.688;2023-04-03T07:30:53;7.63;;;4.30;;
22152;SDS011;11242;50.536;12.688;2023-04-03T07:33:24;6.95;;;4.00;;
22152;SDS011;11242;50.536;12.688;2023-04-03T07:35:50;6.78;;;3.92;;
22152;SDS011;11242;50.536;12.688;2023-04-03T07:38:16;8.73;;;4.50;;
22152;SDS011;11242;50.536;12.688;2023-04-03T07:40:48;7.53;;;4.45;;
22152;SDS011;11242;50.536;12.688;2023-04-03T07:43:15;6.35;;;3.97;;
22152;SDS011;11242;50.536;12.688;2023-04-03T07:45:41;8.90;;;4.10;;
22152;SDS011;11242;50.536;12.688;2023-04-03T07:48:08;8.95;;;4.50;;
22152;SDS011;11242;50.536;12.688;2023-04-03T07:50:35;7.45;;;4.20;;
22152;SDS011;11242;50.536;12.688;2023-04-03T07:53:01;11.15;;;6.15;;
22152;SDS011;11242;50.536;12.688;2023-04-03T07:55:27;15.27;;;8.98;;
22152;SDS011;11242;50.536;12.688;2023-04-03T07:57:53;8.32;;;4.05;;
22152;SDS011;11242;50.536;12.688;2023-04-03T08:00:20;5.95;;;4.25;;
22152;SDS011;11242;50.536;12.688;2023-04-03T08:02:46;6.22;;;4.38;;
22152;SDS011;11242;50.536;12.688;2023-04-03T08:05:17;10.18;;;5.90;;
22152;SDS011;11242;50.536;12.688;2023-04-03T08:07:44;8.60;;;4.30;;
22152;SDS011;11242;50.536;12.688;2023-04-03T08:10:09;4.70;;;3.90;;
22152;SDS011;11242;50.536;12.688;2023-04-03T08:12:35;5.75;;;3.55;;
22152;SDS011;11242;50.536;12.688;2023-04-03T08:15:02;5.60;;;4.60;;
22152;SDS011;11242;50.536;12.688;2023-04-03T08:17:28;6.70;;;3.78;;
22152;SDS011;11242;50.536;12.688;2023-04-03T08:19:53;7.13;;;4.25;;
22152;SDS011;11242;50.536;12.688;2023-04-03T08:22:19;6.50;;;3.58;;
22152;SDS011;11242;50.536;12.688;2023-04-03T08:24:45;4.35;;;3.25;;
22152;SDS011;11242;50.536;12.688;2023-04-03T08:27:10;7.47;;;4.75;;
22152;SDS011;11242;50.536;12.688;2023-04-03T08:29:36;9.60;;;5.03;;
22152;SDS011;11242;50.536;12.688;2023-04-03T08:32:03;5.70;;;3.40;;
22152;SDS011;11242;50.536;12.688;2023-04-03T08:34:29;9.70;;;3.97;;
22152;SDS011;11242;50.536;12.688;2023-04-03T08:36:55;5.43;;;3.70;;
22152;SDS011;11242;50.536;12.688;2023-04-03T08:39:20;6.35;;;3.80;;
22152;SDS011;11242;50.536;12.688;2023-04-03T08:41:46;5.78;;;3.67;;
22152;SDS011;11242;50.536;12.688;2023-04-03T08:47:24;6.65;;;3.65;;
22152;SDS011;11242;50.536;12.688;2023-04-03T08:49:57;8.05;;;4.13;;
22152;SDS011;11242;50.536;12.688;2023-04-03T08:52:39;4.90;;;4.00;;
22152;SDS011;11242;50.536;12.688;2023-04-03T08:55:29;7.13;;;4.97;;
22152;SDS011;11242;50.536;12.688;2023-04-03T08:58:15;7.53;;;5.55;;
22152;SDS011;11242;50.536;12.688;2023-04-03T09:00:46;5.63;;;4.43;;
22152;SDS011;11242;50.536;12.688;2023-04-03T09:03:16;6.72;;;4.60;;
22152;SDS011;11242;50.536;12.688;2023-04-03T09:05:54;13.90;;;4.78;;
22152;SDS011;11242;50.536;12.688;2023-04-03T09:08:31;9.82;;;5.13;;
22152;SDS011;11242;50.536;12.688;2023-04-03T09:24:47;8.63;;;5.70;;
22152;SDS011;11242;50.536;12.688;2023-04-03T09:27:17;6.43;;;4.53;;
22152;SDS011;11242;50.536;12.688;2023-04-03T09:29:43;7.47;;;5.03;;
22152;SDS011;11242;50.536;12.688;2023-04-03T09:34:53;6.82;;;4.63;;
22152;SDS011;11242;50.536;12.688;2023-04-03T09:37:38;9.55;;;5.50;;
22152;SDS011;11242;50.536;12.688;2023-04-03T09:42:50;10.27;;;5.78;;
22152;SDS011;11242;50.536;12.688;2023-04-03T09:45:39;7.38;;;5.30;;
22152;SDS011;11242;50.536;12.688;2023-04-03T09:48:07;7.53;;;5.38;;
22152;SDS011;11242;50.536;12.688;2023-04-03T09:53:36;9.32;;;5.13;;
22152;SDS011;11242;50.536;12.688;2023-04-03T09:56:25;8.52;;;4.50;;
22152;SDS011;11242;50.536;12.688;2023-04-03T10:04:14;8.13;;;7.30;;
22152;SDS011;11242;50.536;12.688;2023-04-03T10:06:42;5.63;;;4.35;;
22152;SDS011;11242;50.536;12.688;2023-04-03T10:09:19;9.70;;;6.40;;
22152;SDS011;11242;50.536;12.688;2023-04-03T10:12:06;6.72;;;4.78;;
22152;SDS011;11242;50.536;12.688;2023-04-03T10:14:39;8.25;;;4.82;;
22152;SDS011;11242;50.536;12.688;2023-04-03T10:25:34;7.80;;;4.60;;
22152;SDS011;11242;50.536;12.688;2023-04-03T10:31:05;5.57;;;3.92;;
22152;SDS011;11242;50.536;12.688;2023-04-03T10:33:52;9.82;;;4.97;;
22152;SDS011;11242;50.536;12.688;2023-04-03T10:39:12;13.75;;;7.82;;
22152;SDS011;11242;50.536;12.688;2023-04-03T10:42:00;5.53;;;4.30;;
22152;SDS011;11242;50.536;12.688;2023-04-03T10:53:00;4.75;;;3.53;;
22152;SDS011;11242;50.536;12.688;2023-04-03T10:58:33;10.63;;;5.03;;
22152;SDS011;11242;50.536;12.688;2023-04-03T11:01:05;5.68;;;4.38;;
22152;SDS011;11242;50.536;12.688;2023-04-03T11:03:56;7.15;;;5.07;;
22152;SDS011;11242;50.536;12.688;2023-04-03T11:06:24;4.85;;;3.80;;
22152;SDS011;11242;50.536;12.688;2023-04-03T11:08:57;4.43;;;3.60;;
22152;SDS011;11242;50.536;12.688;2023-04-03T11:11:31;6.68;;;5.28;;
22152;SDS011;11242;50.536;12.688;2023-04-03T11:14:03;6.03;;;4.00;;
22152;SDS011;11242;50.536;12.688;2023-04-03T11:16:40;5.65;;;4.15;;
22152;SDS011;11242;50.536;12.688;2023-04-03T11:19:18;6.53;;;4.15;;
22152;SDS011;11242;50.536;12.688;2023-04-03T11:22:09;6.45;;;3.60;;
22152;SDS011;11242;50.536;12.688;2023-04-03T11:24:41;5.53;;;3.97;;
22152;SDS011;11242;50.536;12.688;2023-04-03T11:27:16;7.80;;;5.03;;
22152;SDS011;11242;50.536;12.688;2023-04-03T11:29:47;5.35;;;3.75;;
22152;SDS011;11242;50.536;12.688;2023-04-03T11:32:26;4.57;;;3.58;;
22152;SDS011;11242;50.536;12.688;2023-04-03T11:35:19;5.93;;;4.15;;
22152;SDS011;11242;50.536;12.688;2023-04-03T11:37:47;5.70;;;3.78;;
22152;SDS011;11242;50.536;12.688;2023-04-03T11:42:42;5.32;;;3.50;;
22152;SDS011;11242;50.536;12.688;2023-04-03T11:47:55;4.95;;;3.85;;
22152;SDS011;11242;50.536;12.688;2023-04-03T12:06:41;6.88;;;3.80;;
22152;SDS011;11242;50.536;12.688;2023-04-03T12:24:26;6.05;;;3.55;;
22152;SDS011;11242;50.536;12.688;2023-04-03T12:29:32;5.68;;;4.05;;
22152;SDS011;11242;50.536;12.688;2023-04-03T12:32:18;9.00;;;4.80;;
22152;SDS011;11242;50.536;12.688;2023-04-03T12:37:39;10.40;;;5.75;;
22152;SDS011;11242;50.536;12.688;2023-04-03T12:45:45;14.13;;;7.15;;
22152;SDS011;11242;50.536;12.688;2023-04-03T12:48:18;19.00;;;10.02;;
22152;SDS011;11242;50.536;12.688;2023-04-03T12:50:49;15.50;;;9.90;;
22152;SDS011;11242;50.536;12.688;2023-04-03T12:53:19;12.90;;;7.38;;
22152;SDS011;11242;50.536;12.688;2023-04-03T12:55:53;12.50;;;6.20;;
22152;SDS011;11242;50.536;12.688;2023-04-03T12:58:23;8.23;;;5.10;;
22152;SDS011;11242;50.536;12.688;2023-04-03T13:00:58;4.53;;;3.58;;
22152;SDS011;11242;50.536;12.688;2023-04-03T13:03:29;12.80;;;7.10;;
22152;SDS011;11242;50.536;12.688;2023-04-03T13:06:04;14.63;;;9.40;;
22152;SDS011;11242;50.536;12.688;2023-04-03T13:08:30;14.73;;;7.55;;
22152;SDS011;11242;50.536;12.688;2023-04-03T13:13:27;9.20;;;5.60;;
22152;SDS011;11242;50.536;12.688;2023-04-03T13:15:54;17.33;;;11.45;;
22152;SDS011;11242;50.536;12.688;2023-04-03T13:18:33;8.20;;;5.82;;
22152;SDS011;11242;50.536;12.688;2023-04-03T13:21:04;9.98;;;4.93;;
22152;SDS011;11242;50.536;12.688;2023-04-03T13:23:31;10.18;;;5.45;;
22152;SDS011;11242;50.536;12.688;2023-04-03T13:25:59;17.08;;;7.97;;
22152;SDS011;11242;50.536;12.688;2023-04-03T13:28:28;6.75;;;2.97;;
22152;SDS011;11242;50.536;12.688;2023-04-03T13:33:35;8.38;;;3.65;;
22152;SDS011;11242;50.536;12.688;2023-04-03T13:36:54;4.82;;;2.92;;
22152;SDS011;11242;50.536;12.688;2023-04-03T13:41:40;11.07;;;7.68;;
22152;SDS011;11242;50.536;12.688;2023-04-03T13:46:55;18.48;;;8.65;;
22152;SDS011;11242;50.536;12.688;2023-04-03T13:51:57;5.35;;;2.72;;
22152;SDS011;11242;50.536;12.688;2023-04-03T13:54:34;6.00;;;3.28;;
22152;SDS011;11242;50.536;12.688;2023-04-03T13:57:02;4.72;;;2.50;;
22152;SDS011;11242;50.536;12.688;2023-04-03T13:59:36;5.28;;;2.50;;
22152;SDS011;11242;50.536;12.688;2023-04-03T14:04:44;4.95;;;2.75;;
22152;SDS011;11242;50.536;12.688;2023-04-03T14:07:14;8.07;;;3.40;;
22152;SDS011;11242;50.536;12.688;2023-04-03T14:09:42;6.50;;;2.92;;
22152;SDS011;11242;50.536;12.688;2023-04-03T14:12:11;9.20;;;3.50;;
22152;SDS011;11242;50.536;12.688;2023-04-03T14:14:44;5.68;;;3.53;;
22152;SDS011;11242;50.536;12.688;2023-04-03T14:17:16;11.98;;;4.85;;
22152;SDS011;11242;50.536;12.688;2023-04-03T14:19:43;5.07;;;2.72;;
22152;SDS011;11242;50.536;12.688;2023-04-03T14:22:20;6.53;;;2.90;;
22152;SDS011;11242;50.536;12.688;2023-04-03T14:24:48;3.13;;;2.15;;
22152;SDS011;11242;50.536;12.688;2023-04-03T14:27:18;3.33;;;2.22;;
22152;SDS011;11242;50.536;12.688;2023-04-03T14:29:49;3.63;;;2.17;;
22152;SDS011;11242;50.536;12.688;2023-04-03T14:32:16;4.90;;;2.60;;
22152;SDS011;11242;50.536;12.688;2023-04-03T14:34:44;11.98;;;2.58;;
22152;SDS011;11242;50.536;12.688;2023-04-03T14:37:11;5.47;;;2.83;;
22152;SDS011;11242;50.536;12.688;2023-04-03T14:39:39;4.60;;;2.72;;
22152;SDS011;11242;50.536;12.688;2023-04-03T14:42:05;9.68;;;5.10;;
22152;SDS011;11242;50.536;12.688;2023-04-03T14:44:31;8.90;;;4.90;;
22152;SDS011;11242;50.536;12.688;2023-04-03T14:46:57;6.63;;;4.15;;
22152;SDS011;11242;50.536;12.688;2023-04-03T14:49:26;10.90;;;7.55;;
22152;SDS011;11242;50.536;12.688;2023-04-03T14:51:53;4.82;;;3.42;;
22152;SDS011;11242;50.536;12.688;2023-04-03T14:54:20;5.65;;;3.42;;
22152;SDS011;11242;50.536;12.688;2023-04-03T14:56:50;6.82;;;4.65;;
22152;SDS011;11242;50.536;12.688;2023-04-03T14:59:17;4.47;;;2.80;;
22152;SDS011;11242;50.536;12.688;2023-04-03T15:01:45;12.50;;;7.93;;
22152;SDS011;11242;50.536;12.688;2023-04-03T15:04:12;3.67;;;2.15;;
22152;SDS011;11242;50.536;12.688;2023-04-03T15:06:39;5.03;;;2.40;;
22152;SDS011;11242;50.536;12.688;2023-04-03T15:09:09;7.68;;;3.05;;
22152;SDS011;11242;50.536;12.688;2023-04-03T15:11:43;3.80;;;2.58;;
22152;SDS011;11242;50.536;12.688;2023-04-03T15:14:09;4.45;;;2.53;;
22152;SDS011;11242;50.536;12.688;2023-04-03T15:16:34;5.03;;;2.97;;
22152;SDS011;11242;50.536;12.688;2023-04-03T15:19:00;7.68;;;4.88;;
22152;SDS011;11242;50.536;12.688;2023-04-03T15:21:26;7.95;;;3.60;;
22152;SDS011;11242;50.536;12.688;2023-04-03T15:23:52;8.20;;;4.47;;
22152;SDS011;11242;50.536;12.688;2023-04-03T15:26:17;7.95;;;4.22;;
22152;SDS011;11242;50.536;12.688;2023-04-03T15:28:43;5.95;;;3.78;;
22152;SDS011;11242;50.536;12.688;2023-04-03T15:31:09;4.75;;;2.42;;
22152;SDS011;11242;50.536;12.688;2023-04-03T15:33:35;6.40;;;2.55;;
22152;SDS011;11242;50.536;12.688;2023-04-03T15:36:01;13.30;;;6.40;;
22152;SDS011;11242;50.536;12.688;2023-04-03T15:38:28;10.90;;;5.80;;
22152;SDS011;11242;50.536;12.688;2023-04-03T15:40:54;9.45;;;5.75;;
22152;SDS011;11242;50.536;12.688;2023-04-03T15:43:20;5.72;;;3.28;;
22152;SDS011;11242;50.536;12.688;2023-04-03T15:45:46;6.00;;;2.58;;
22152;SDS011;11242;50.536;12.688;2023-04-03T15:48:12;5.00;;;2.20;;
22152;SDS011;11242;50.536;12.688;2023-04-03T15:50:38;11.25;;;4.00;;
22152;SDS011;11242;50.536;12.688;2023-04-03T15:53:05;6.53;;;2.38;;
22152;SDS011;11242;50.536;12.688;2023-04-03T15:55:32;5.00;;;2.97;;
22152;SDS011;11242;50.536;12.688;2023-04-03T15:57:59;5.20;;;4.10;;
22152;SDS011;11242;50.536;12.688;2023-04-03T16:00:26;5.47;;;4.05;;
22152;SDS011;11242;50.536;12.688;2023-04-03T16:02:53;6.50;;;3.05;;
22152;SDS011;11242;50.536;12.688;2023-04-03T16:05:23;4.63;;;2.90;;
22152;SDS011;11242;50.536;12.688;2023-04-03T16:07:49;4.30;;;2.20;;
22152;SDS011;11242;50.536;12.688;2023-04-03T16:10:15;7.15;;;2.40;;
22152;SDS011;11242;50.536;12.688;2023-04-03T16:12:43;9.88;;;5.28;;
22152;SDS011;11242;50.536;12.688;2023-04-03T16:15:09;5.65;;;2.60;;
22152;SDS011;11242;50.536;12.688;2023-04-03T16:17:35;9.52;;;4.43;;
22152;SDS011;11242;50.536;12.688;2023-04-03T16:20:02;7.50;;;3.50;;
22152;SDS011;11242;50.536;12.688;2023-04-03T16:22:29;11.50;;;6.70;;
22152;SDS011;11242;50.536;12.688;2023-04-03T16:24:55;5.07;;;2.75;;
22152;SDS011;11242;50.536;12.688;2023-04-03T16:27:21;5.10;;;3.35;;
22152;SDS011;11242;50.536;12.688;2023-04-03T16:29:52;5.40;;;3.03;;
22152;SDS011;11242;50.536;12.688;2023-04-03T16:32:21;13.15;;;7.22;;
22152;SDS011;11242;50.536;12.688;2023-04-03T16:34:48;11.18;;;5.72;;
22152;SDS011;11242;50.536;12.688;2023-04-03T16:37:14;3.67;;;2.90;;
22152;SDS011;11242;50.536;12.688;2023-04-03T16:39:40;6.57;;;4.13;;
22152;SDS011;11242;50.536;12.688;2023-04-03T16:42:06;8.13;;;2.58;;
22152;SDS011;11242;50.536;12.688;2023-04-03T16:44:34;6.30;;;3.80;;
22152;SDS011;11242;50.536;12.688;2023-04-03T16:46:59;11.70;;;6.85;;